Photometre #44[NE_1.6] Rome_La_Sapienza AOT

File : 20220828_44.hum

28/08/2022,05:20:10,TEMP=22.2,BA=5.60,STAT.A=6.5,ExtBa=13.36
28/08/2022,05:23:37,TEMP=22.5,BA=5.60,STAT.A=6.5,ExtBa=13.29
28/08/2022,05:27:38,TEMP=22.6,BA=5.60,STAT.A=6.5,ExtBa=13.29
28/08/2022,05:32:23,TEMP=22.6,BA=5.60,STAT.A=6.5,ExtBa=13.30
28/08/2022,05:38:06,TEMP=22.8,BA=5.60,STAT.A=6.5,ExtBa=13.31
28/08/2022,05:45:06,TEMP=23.0,BA=5.52,STAT.A=6.5,ExtBa=13.29
28/08/2022,05:53:55,TEMP=23.5,BA=5.68,STAT.B=6.5,ExtBa=13.33
28/08/2022,06:07:11,TEMP=24.0,BA=5.52,STAT.A=6.5,ExtBa=12.96
28/08/2022,06:09:29,TEMP=24.2,BA=5.52,STAT.A=6.5,ExtBa=12.98
28/08/2022,06:11:47,TEMP=24.4,BA=5.52,STAT.A=6.5,ExtBa=13.00
28/08/2022,06:14:09,TEMP=24.5,BA=5.52,STAT.A=6.5,ExtBa=12.98
28/08/2022,06:20:46,TEMP=24.5,BA=5.60,STAT.C=6.5,ExtBa=13.17
28/08/2022,06:40:15,TEMP=25.9,BA=5.48,STAT.A=6.5,ExtBa=12.95
28/08/2022,06:42:44,TEMP=26.1,BA=5.48,STAT.A=6.5,ExtBa=12.94
28/08/2022,06:48:39,TEMP=26.2,BA=5.48,STAT.A=6.5,ExtBa=13.10
28/08/2022,07:01:49,TEMP=26.1,BA=5.64,STAT.A=6.5,ExtBa=13.34
28/08/2022,07:18:08,TEMP=27.0,BA=5.60,STAT.B=6.5,ExtBa=13.40
28/08/2022,07:52:13,TEMP=28.6,BA=5.60,STAT.B=6.5,ExtBa=13.39
28/08/2022,08:03:29,TEMP=29.1,BA=5.48,STAT.D=6.5,ExtBa=12.96
28/08/2022,08:11:54,TEMP=29.6,BA=5.52,STAT.F,ExtBa=13.22
28/08/2022,08:29:43,TEMP=31.5,BA=5.48,STAT.D=6.5,ExtBa=12.94
28/08/2022,08:41:53,TEMP=32.8,BA=5.52,STAT.D=6.5,ExtBa=13.29
28/08/2022,08:56:53,TEMP=33.3,BA=5.52,STAT.D=6.5,ExtBa=13.36
28/08/2022,09:11:55,TEMP=33.0,BA=5.48,STAT.F,ExtBa=13.38
28/08/2022,09:26:53,TEMP=33.2,BA=5.48,STAT.D=6.5,ExtBa=13.32
28/08/2022,09:41:53,TEMP=33.7,BA=5.48,STAT.D=6.5,ExtBa=13.37
28/08/2022,09:56:53,TEMP=33.5,BA=5.48,STAT.D=6.5,ExtBa=13.38
28/08/2022,10:11:55,TEMP=32.8,BA=5.44,STAT.F,ExtBa=13.39
28/08/2022,10:26:53,TEMP=32.7,BA=5.44,STAT.D=6.5,ExtBa=13.33
28/08/2022,10:41:53,TEMP=32.5,BA=5.44,STAT.D=6.5,ExtBa=13.38
28/08/2022,10:56:53,TEMP=32.3,BA=5.44,STAT.D=6.5,ExtBa=13.39
28/08/2022,11:11:55,TEMP=32.0,BA=5.44,STAT.F,ExtBa=13.39
28/08/2022,11:26:53,TEMP=32.5,BA=5.44,STAT.D=6.5,ExtBa=13.33
28/08/2022,11:41:53,TEMP=32.8,BA=5.44,STAT.D=6.5,ExtBa=13.38
28/08/2022,11:56:53,TEMP=33.6,BA=5.44,STAT.D=6.5,ExtBa=13.37
28/08/2022,12:11:55,TEMP=33.9,BA=5.44,STAT.F,ExtBa=13.34
28/08/2022,12:26:53,TEMP=33.2,BA=5.44,STAT.D=6.5,ExtBa=13.34
28/08/2022,12:41:53,TEMP=33.7,BA=5.48,STAT.D=6.5,ExtBa=13.34
28/08/2022,12:56:53,TEMP=33.3,BA=5.48,STAT.D=6.5,ExtBa=13.32
28/08/2022,13:11:54,TEMP=34.1,BA=5.48,STAT.F,ExtBa=13.30
28/08/2022,13:26:53,TEMP=34.0,BA=5.40,STAT.D=6.5,ExtBa=13.31
28/08/2022,13:41:53,TEMP=33.6,BA=5.48,STAT.D=6.5,ExtBa=13.35
28/08/2022,13:56:53,TEMP=32.7,BA=5.48,STAT.D=6.5,ExtBa=13.31
28/08/2022,14:11:54,TEMP=32.3,BA=5.48,STAT.F,ExtBa=13.30
28/08/2022,14:23:22,TEMP=32.3,BA=5.36,STAT.b=6.5
28/08/2022,14:26:53,TEMP=32.3,BA=5.36,STAT.D=6.5,ExtBa=13.19
28/08/2022,14:31:35,TEMP=32.3,BA=5.44,STAT.B=6.5,ExtBa=13.26
28/08/2022,15:05:41,TEMP=32.2,BA=5.48,STAT.B=6.5,ExtBa=13.40
28/08/2022,15:22:01,TEMP=31.9,BA=5.48,STAT.A=6.5,ExtBa=13.23
28/08/2022,15:35:09,TEMP=31.5,BA=5.52,STAT.A=6.5,ExtBa=13.38
28/08/2022,15:46:00,TEMP=31.4,BA=5.52,STAT.A=6.5,ExtBa=13.40
28/08/2022,15:55:10,TEMP=31.4,BA=5.52,STAT.A=6.5,ExtBa=13.39
28/08/2022,16:03:00,TEMP=31.2,BA=5.52,STAT.C=6.5,ExtBa=13.37
28/08/2022,16:14:29,TEMP=30.9,BA=5.40,STAT.b=6.5
28/08/2022,16:15:25,TEMP=30.9,BA=5.40,STAT.A=6.5,ExtBa=13.06
28/08/2022,16:17:30,TEMP=30.9,BA=5.40,STAT.A=6.5,ExtBa=13.07
28/08/2022,16:20:59,TEMP=30.7,BA=5.44,STAT.A=6.5,ExtBa=13.11
28/08/2022,16:25:40,TEMP=30.6,BA=5.44,STAT.A=6.5,ExtBa=13.20
28/08/2022,16:29:51,TEMP=30.6,BA=5.44,STAT.B=6.5,ExtBa=13.20
28/08/2022,16:41:08,TEMP=30.4,BA=5.36,STAT.A=6.5,ExtBa=12.98
28/08/2022,16:45:40,TEMP=30.4,BA=5.36,STAT.A=6.5,ExtBa=13.12
28/08/2022,16:51:23,TEMP=30.5,BA=5.48,STAT.A=6.5,ExtBa=13.20
28/08/2022,16:56:08,TEMP=30.7,BA=5.48,STAT.A=6.5,ExtBa=13.22
28/08/2022,17:00:09,TEMP=30.4,BA=5.44,STAT.A=6.5,ExtBa=13.14
28/08/2022,17:03:36,TEMP=29.8,BA=5.44,STAT.A=6.5,ExtBa=13.10